Flight Track Log - Related Links

Times and Time Zones

All times are in EDT time to prevent confusion due to time zone crossing. See the N244A flight status page for this flight to view local times or setup timezone preferences in your user account.

Time Position Orientation Groundspeed Altitude Reporting Facility
EDT Latitude Longitude Course Direction KTS MPH feet Rate Location/Type
Wed 10:07:39 AM 35.0192 -106.5258 121° Southeast 226 260 8,000  Level Albuquerque Center
Wed 10:08:12 AM 34.9831 -106.5178 170° South 230 265 9,400 2,211 Climbing Albuquerque Center
Wed 10:09:14 AM 34.9244 -106.4753 149° Southeast 258 297 11,500 1,935 Climbing Albuquerque Center
Wed 10:10:16 AM 34.8817 -106.3858 120° Southeast 301 346 13,400 1,366 Climbing Albuquerque Center
Wed 10:11:17 AM 34.8294 -106.2817 121° Southeast 353 406 14,300 1,268 Climbing Albuquerque Center
Wed 10:12:19 AM 34.7717 -106.1661 121° Southeast 386 444 16,000 1,597 Climbing Albuquerque Center
Wed 10:13:21 AM 34.7517 -106.0314 100° East 400 460 17,600 1,463 Climbing Albuquerque Center
Wed 10:14:22 AM 34.7439 -105.8672 93° East 412 474 19,000 1,415 Climbing Albuquerque Center
Wed 10:15:24 AM 34.7331 -105.7236 95° East 421 484 20,500 1,452 Climbing Albuquerque Center
Wed 10:16:26 AM 34.7222 -105.5794 95° East 424 488 22,000 1,355 Climbing Albuquerque Center
Wed 10:17:28 AM 34.7133 -105.4328 94° East 430 495 23,300 1,317 Climbing Albuquerque Center
Wed 10:18:29 AM 34.7008 -105.2856 96° East 434 499 24,700 1,317 Climbing Albuquerque Center
Wed 10:19:31 AM 34.6911 -105.1381 95° East 436 502 26,000 1,258 Climbing Albuquerque Center
Wed 10:20:33 AM 34.6803 -104.9922 95° East 432 497 27,300 1,258 Climbing Albuquerque Center
Wed 10:21:35 AM 34.6686 -104.8475 96° East 430 495 28,600 1,220 Climbing Albuquerque Center
Wed 10:22:36 AM 34.6544 -104.6797 96° East 427 491 29,800 1,024 Climbing Albuquerque Center
Wed 10:23:38 AM 34.6447 -104.5356 95° East 426 490 30,700 871 Climbing Albuquerque Center
Wed 10:24:40 AM 34.6308 -104.3883 96° East 433 498 31,600 823 Climbing Albuquerque Center
Wed 10:25:42 AM 34.6197 -104.2406 95° East 437 503 32,400 774 Climbing Albuquerque Center
Wed 10:26:44 AM 34.6072 -104.0919 96° East 440 506 33,200 726 Climbing Albuquerque Center
Wed 10:27:46 AM 34.5936 -103.9414 96° East 444 511 33,900 677 Climbing Albuquerque Center
Wed 10:28:48 AM 34.5819 -103.7925 95° East 444 511 34,600 532 Climbing Albuquerque Center
Wed 10:29:50 AM 34.5650 -103.6156 97° East 448 516 35,000 194 Climbing Albuquerque Center
Wed 10:30:52 AM 34.5514 -103.4617 96° East 454 522 35,000  Level Albuquerque Center
Wed 10:31:53 AM 34.5364 -103.3042 97° East 464 534 35,000  Level Albuquerque Center
Wed 10:32:55 AM 34.5222 -103.1442 96° East 472 543 35,000  Level Albuquerque Center
Wed 10:33:57 AM 34.5072 -102.9819 96° East 479 551 35,000  Level Albuquerque Center
Wed 10:34:59 AM 34.4892 -102.8103 97° East 481 554 35,000  Level Albuquerque Center
Wed 10:36:01 AM 34.4756 -102.6514 96° East 478 550 35,000  Level Albuquerque Center
Wed 10:37:03 AM 34.4594 -102.4956 97° East 473 544 35,000  Level Albuquerque Center
Wed 10:38:05 AM 34.4433 -102.3400 97° East 470 541 35,000  Level Albuquerque Center
Wed 10:39:07 AM 34.4228 -102.1531 98° East 470 541 35,000  Level Albuquerque Center
Wed 10:40:09 AM 34.4058 -101.9969 97° East 470 541 35,000  Level Albuquerque Center
Wed 10:41:11 AM 34.3889 -101.8408 97° East 471 542 35,000  Level Albuquerque Center
Wed 10:42:13 AM 34.3717 -101.6858 98° East 470 541 35,000  Level Albuquerque Center
Wed 10:43:15 AM 34.3547 -101.5303 97° East 469 540 35,000  Level Albuquerque Center
Wed 10:44:17 AM 34.3339 -101.3450 98° East 467 537 35,000  Level Albuquerque Center
Wed 10:45:19 AM 34.3169 -101.1917 98° East 466 536 35,000  Level Albuquerque Center
Wed 10:46:21 AM 34.2986 -101.0372 98° East 465 535 35,000  Level Albuquerque Center
Wed 10:47:29 AM 34.2764 -100.8517 98° East 465 535 35,000  Level Fort Worth Center
Wed 10:48:29 AM 34.2594 -100.6978 98° East 465 535 35,000  Level Fort Worth Center
Wed 10:49:29 AM 34.2428 -100.5414 97° East 465 535 35,000  Level Fort Worth Center
Wed 10:50:29 AM 34.2081 -100.4219 109° East 465 535 35,000 -50 Level Fort Worth Center
Wed 10:51:29 AM 34.1492 -100.2644 114° Southeast 470 541 34,900 -750 Descending Fort Worth Center
Wed 10:52:29 AM 34.1022 -100.1200 111° Southeast 475 547 33,500 -1,400 Descending Fort Worth Center
Wed 10:53:29 AM 34.0511 -99.9703 112° Southeast 475 547 32,100 -1,700 Descending Fort Worth Center
Wed 10:54:29 AM 34.0019 -99.8186 111° Southeast 482 555 30,100 -2,100 Descending Fort Worth Center
Wed 10:55:29 AM 33.9506 -99.6694 113° Southeast 482 555 27,900 -1,850 Descending Fort Worth Center
Wed 10:56:29 AM 33.8969 -99.5128 112° Southeast 476 548 26,400 -1,550 Descending Fort Worth Center
Wed 10:57:29 AM 33.8450 -99.3717 114° Southeast 471 542 24,800 -1,200 Descending Fort Worth Center
Wed 10:58:29 AM 33.8011 -99.2356 111° Southeast 456 525 24,000 -400 Descending Fort Worth Center
Wed 10:59:29 AM 33.7550 -99.1072 113° Southeast 435 501 24,000  Level Fort Worth Center
Wed 11:00:29 AM 33.7147 -98.9917 113° Southeast 417 480 24,000  Level Fort Worth Center
Wed 11:01:29 AM 33.6683 -98.8586 113° Southeast 417 480 24,000  Level Fort Worth Center
Wed 11:02:29 AM 33.6217 -98.7231 112° Southeast 422 486 24,000 -900 Level Fort Worth Center
Wed 11:03:29 AM 33.5669 -98.5703 113° Southeast 440 506 22,200 -1,850 Descending Fort Worth Center
Wed 11:04:29 AM 33.5200 -98.4475 115° Southeast 447 514 20,300 -2,050 Descending Fort Worth Center
Wed 11:05:29 AM 33.4750 -98.3175 113° Southeast 427 491 18,100 -2,600 Descending Fort Worth Center
Wed 11:06:29 AM 33.4300 -98.1900 113° Southeast 389 448 15,100 -2,600 Descending Fort Worth Center
Wed 11:07:29 AM 33.3869 -98.0778 115° Southeast 379 436 12,900 -2,050 Descending Fort Worth Center
Wed 11:08:29 AM 33.3539 -97.9781 112° Southeast 351 404 11,000 -2,150 Descending Fort Worth Center
Wed 11:09:29 AM 33.3189 -97.8833 114° Southeast 312 359 8,600 -1,488 Descending Fort Worth Center
Wed 11:10:30 AM 33.2878 -97.7961 113° Southeast 286 329 8,000 -450 Descending Fort Worth Center
Wed 11:11:29 AM 33.2506 -97.7189 120° Southeast 275 316 7,700 -1,059 Descending Fort Worth Center
Wed 11:12:29 AM 33.1839 -97.6617 144° Southeast 284 327 5,900 -1,677 Descending Fort Worth Center
Wed 11:13:02 AM 33.1500 -97.6167 132° Southeast 290 334 5,100 -903 Descending Dallas / Fort Worth TRACON
Wed 11:14:02 AM 33.1000 -97.5667 140° Southeast 260 299 4,500 -735 Descending Dallas / Fort Worth TRACON
Wed 11:15:29 AM 33.0169 -97.4953 144° Southeast 267 307 3,300 -612 Descending Fort Worth Center
Wed 11:16:29 AM 32.9628 -97.4406 140° Southeast 249 287 3,000 -350 Descending Fort Worth Center
Wed 11:17:29 AM 32.9272 -97.4036 139° Southeast 212 244 2,600 -550 Descending Fort Worth Center
Wed 11:18:29 AM 32.8897 -97.3739 146° Southeast 167 192 1,900 -700 Descending Fort Worth Center
Wed 11:19:29 AM 32.8564 -97.3689 173° South 139 160 1,200 3,050 Descending Fort Worth Center
Wed 11:20:29 AM 32.7769 -97.4133 205° Southwest 133 153 8,000 3,400 Climbing Fort Worth Center
Wed 11:21:29 AM 32.7792 -97.4133 360° North 126 145 8,000  Level Fort Worth Center
Wed 11:22:29 AM 32.7769 -97.4133 180° South 17 20 8,000  Level Fort Worth Center
Wed 11:23:29 AM 32.7769 -97.4133 328° Northwest 28 32 8,000  Level Fort Worth Center
Wed 11:25:00 AM 32.8167 -97.3500 40° Northeast  Level FlightAware Approximate
Wed 11:32:00 AM 32.8198 -97.3624 40° Northeast  Level Estimated
Wed 11:33:00 AM 32.8198 -97.3624 40° Northeast  Level Estimated
Wed 11:34:00 AM 32.8198 -97.3624 40° Northeast  Level Estimated

Login

Don't have an account? Register now (free) for customized features, flight alerts, and more!